sensor_id;sensor_type;location;lat;lon;timestamp;pressure;altitude;pressure_sealevel;temperature;humidity
63006;BME280;53704;52.532;6.426;2023-03-04T00:01:46;102574.78;;;4.13;100.00
63006;BME280;53704;52.532;6.426;2023-03-04T00:04:11;102575.16;;;4.23;100.00
63006;BME280;53704;52.532;6.426;2023-03-04T00:06:37;102575.16;;;4.23;100.00
63006;BME280;53704;52.532;6.426;2023-03-04T00:09:03;102585.53;;;4.29;100.00
63006;BME280;53704;52.532;6.426;2023-03-04T00:11:30;102578.78;;;4.22;100.00
63006;BME280;53704;52.532;6.426;2023-03-04T00:13:56;102578.00;;;4.20;100.00
63006;BME280;53704;52.532;6.426;2023-03-04T00:16:22;102574.63;;;4.16;100.00
63006;BME280;53704;52.532;6.426;2023-03-04T00:18:52;102569.91;;;4.22;100.00
63006;BME280;53704;52.532;6.426;2023-03-04T00:21:17;102573.44;;;4.22;100.00
63006;BME280;53704;52.532;6.426;2023-03-04T00:23:43;102565.56;;;4.21;100.00
63006;BME280;53704;52.532;6.426;2023-03-04T00:26:08;102566.47;;;4.20;100.00
63006;BME280;53704;52.532;6.426;2023-03-04T00:28:34;102570.00;;;4.20;100.00
63006;BME280;53704;52.532;6.426;2023-03-04T00:30:59;102565.44;;;4.22;100.00
63006;BME280;53704;52.532;6.426;2023-03-04T00:33:25;102569.31;;;4.16;100.00
63006;BME280;53704;52.532;6.426;2023-03-04T00:35:50;102569.84;;;4.23;100.00
63006;BME280;53704;52.532;6.426;2023-03-04T00:38:16;102569.75;;;4.25;100.00
63006;BME280;53704;52.532;6.426;2023-03-04T00:40:41;102566.31;;;4.23;100.00
63006;BME280;53704;52.532;6.426;2023-03-04T00:43:06;102559.72;;;4.12;100.00
63006;BME280;53704;52.532;6.426;2023-03-04T00:45:32;102558.03;;;4.11;100.00
63006;BME280;53704;52.532;6.426;2023-03-04T00:47:57;102559.66;;;4.14;100.00
63006;BME280;53704;52.532;6.426;2023-03-04T00:50:23;102562.28;;;4.31;100.00
63006;BME280;53704;52.532;6.426;2023-03-04T00:52:48;102566.25;;;4.24;100.00
63006;BME280;53704;52.532;6.426;2023-03-04T00:55:14;102562.78;;;4.22;100.00
63006;BME280;53704;52.532;6.426;2023-03-04T00:57:39;102562.22;;;4.15;100.00
63006;BME280;53704;52.532;6.426;2023-03-04T01:00:05;102562.38;;;4.12;100.00
63006;BME280;53704;52.532;6.426;2023-03-04T01:02:31;102556.13;;;4.13;100.00
63006;BME280;53704;52.532;6.426;2023-03-04T01:04:56;102560.44;;;4.16;100.00
63006;BME280;53704;52.532;6.426;2023-03-04T01:07:21;102559.66;;;4.14;100.00
63006;BME280;53704;52.532;6.426;2023-03-04T01:09:47;102564.22;;;4.12;100.00
63006;BME280;53704;52.532;6.426;2023-03-04T01:12:12;102563.19;;;4.14;100.00
63006;BME280;53704;52.532;6.426;2023-03-04T01:14:38;102566.56;;;4.18;100.00
63006;BME280;53704;52.532;6.426;2023-03-04T01:17:03;102557.19;;;4.27;100.00
63006;BME280;53704;52.532;6.426;2023-03-04T01:19:29;102568.59;;;4.13;100.00
63006;BME280;53704;52.532;6.426;2023-03-04T01:21:54;102561.06;;;4.21;100.00
63006;BME280;53704;52.532;6.426;2023-03-04T01:24:19;102560.94;;;4.07;100.00
63006;BME280;53704;52.532;6.426;2023-03-04T01:26:45;102558.09;;;4.10;100.00
63006;BME280;53704;52.532;6.426;2023-03-04T01:29:10;102557.06;;;4.12;100.00
63006;BME280;53704;52.532;6.426;2023-03-04T01:31:36;102558.47;;;4.20;100.00
63006;BME280;53704;52.532;6.426;2023-03-04T01:34:01;102542.84;;;4.29;100.00
63006;BME280;53704;52.532;6.426;2023-03-04T01:36:26;102551.41;;;4.19;100.00
63006;BME280;53704;52.532;6.426;2023-03-04T01:38:52;102546.22;;;4.33;100.00
63006;BME280;53704;52.532;6.426;2023-03-04T01:41:21;102546.88;;;4.21;100.00
63006;BME280;53704;52.532;6.426;2023-03-04T01:43:47;102540.84;;;4.17;100.00
63006;BME280;53704;52.532;6.426;2023-03-04T01:46:13;102527.59;;;4.15;100.00
63006;BME280;53704;52.532;6.426;2023-03-04T01:48:42;102533.78;;;4.16;100.00
63006;BME280;53704;52.532;6.426;2023-03-04T01:51:14;102532.88;;;4.33;100.00
63006;BME280;53704;52.532;6.426;2023-03-04T01:53:41;102526.09;;;4.27;100.00
63006;BME280;53704;52.532;6.426;2023-03-04T01:56:27;102531.06;;;4.18;100.00
63006;BME280;53704;52.532;6.426;2023-03-04T02:01:38;102517.44;;;4.22;100.00
63006;BME280;53704;52.532;6.426;2023-03-04T02:04:04;102517.44;;;4.22;100.00
63006;BME280;53704;52.532;6.426;2023-03-04T02:06:30;102507.31;;;4.13;100.00
63006;BME280;53704;52.532;6.426;2023-03-04T02:08:56;102510.75;;;4.15;100.00
63006;BME280;53704;52.532;6.426;2023-03-04T02:11:22;102513.41;;;4.15;100.00
63006;BME280;53704;52.532;6.426;2023-03-04T02:13:48;102507.38;;;4.11;100.00
63006;BME280;53704;52.532;6.426;2023-03-04T02:16:13;102508.53;;;4.23;100.00
63006;BME280;53704;52.532;6.426;2023-03-04T02:18:39;102507.31;;;4.13;100.00
63006;BME280;53704;52.532;6.426;2023-03-04T02:26:46;102487.38;;;4.03;100.00
63006;BME280;53704;52.532;6.426;2023-03-04T02:29:14;102490.13;;;4.01;100.00
63006;BME280;53704;52.532;6.426;2023-03-04T02:31:46;102491.88;;;4.02;100.00
63006;BME280;53704;52.532;6.426;2023-03-04T02:34:32;102488.97;;;4.07;100.00
63006;BME280;53704;52.532;6.426;2023-03-04T02:36:59;102487.22;;;4.06;100.00
63006;BME280;53704;52.532;6.426;2023-03-04T02:39:38;102490.50;;;4.11;100.00
63006;BME280;53704;52.532;6.426;2023-03-04T02:42:05;102484.47;;;4.07;100.00
63006;BME280;53704;52.532;6.426;2023-03-04T02:44:38;102488.66;;;4.13;100.00
63006;BME280;53704;52.532;6.426;2023-03-04T02:47:07;102487.31;;;4.04;100.00
63006;BME280;53704;52.532;6.426;2023-03-04T02:49:33;102489.13;;;4.04;100.00
63006;BME280;53704;52.532;6.426;2023-03-04T02:52:13;102492.41;;;4.09;100.00
63006;BME280;53704;52.532;6.426;2023-03-04T02:54:39;102490.50;;;4.11;100.00
63006;BME280;53704;52.532;6.426;2023-03-04T02:57:08;102491.22;;;4.14;100.00
63006;BME280;53704;52.532;6.426;2023-03-04T02:59:36;102484.69;;;4.20;100.00
63006;BME280;53704;52.532;6.426;2023-03-04T03:02:01;102476.03;;;3.99;100.00
63006;BME280;53704;52.532;6.426;2023-03-04T03:04:27;102482.13;;;4.01;100.00
63006;BME280;53704;52.532;6.426;2023-03-04T03:06:53;102471.41;;;4.03;100.00
63006;BME280;53704;52.532;6.426;2023-03-04T03:09:19;102474.66;;;4.08;100.00
63006;BME280;53704;52.532;6.426;2023-03-04T03:11:44;102477.50;;;4.05;100.00
63006;BME280;53704;52.532;6.426;2023-03-04T03:14:10;102465.47;;;3.97;100.00
63006;BME280;53704;52.532;6.426;2023-03-04T03:16:35;102478.91;;;4.12;100.00
63006;BME280;53704;52.532;6.426;2023-03-04T03:19:01;102472.25;;;4.03;100.00
63006;BME280;53704;52.532;6.426;2023-03-04T03:21:26;102474.50;;;4.11;100.00
63006;BME280;53704;52.532;6.426;2023-03-04T03:23:52;102467.31;;;4.13;100.00
63006;BME280;53704;52.532;6.426;2023-03-04T03:26:17;102468.72;;;4.03;100.00
63006;BME280;53704;52.532;6.426;2023-03-04T03:28:43;102458.22;;;3.99;100.00
63006;BME280;53704;52.532;6.426;2023-03-04T03:31:11;102462.72;;;3.99;100.00
63006;BME280;53704;52.532;6.426;2023-03-04T03:33:37;102452.97;;;3.98;100.00
63006;BME280;53704;52.532;6.426;2023-03-04T03:36:03;102456.59;;;3.97;100.00
63006;BME280;53704;52.532;6.426;2023-03-04T03:38:28;102456.69;;;3.95;100.00
63006;BME280;53704;52.532;6.426;2023-03-04T03:40:54;102452.97;;;3.98;100.00
63006;BME280;53704;52.532;6.426;2023-03-04T03:43:19;102455.50;;;4.01;100.00
63006;BME280;53704;52.532;6.426;2023-03-04T03:45:45;102456.97;;;4.07;100.00
63006;BME280;53704;52.532;6.426;2023-03-04T03:48:10;102459.28;;;3.97;100.00
63006;BME280;53704;52.532;6.426;2023-03-04T03:50:36;102451.28;;;3.97;100.00
63006;BME280;53704;52.532;6.426;2023-03-04T03:53:02;102439.56;;;3.99;100.00
63006;BME280;53704;52.532;6.426;2023-03-04T03:55:28;102440.53;;;3.98;100.00
63006;BME280;53704;52.532;6.426;2023-03-04T03:57:53;102451.19;;;3.98;100.00
63006;BME280;53704;52.532;6.426;2023-03-04T04:00:19;102442.41;;;3.96;100.00
63006;BME280;53704;52.532;6.426;2023-03-04T04:02:45;102439.75;;;3.96;100.00
63006;BME280;53704;52.532;6.426;2023-03-04T04:05:11;102446.81;;;3.97;100.00
63006;BME280;53704;52.532;6.426;2023-03-04T04:07:36;102443.22;;;3.98;100.00
63006;BME280;53704;52.532;6.426;2023-03-04T04:10:03;102447.16;;;4.07;100.00
63006;BME280;53704;52.532;6.426;2023-03-04T04:12:30;102438.81;;;3.97;100.00
63006;BME280;53704;52.532;6.426;2023-03-04T04:14:56;102440.25;;;4.03;100.00
63006;BME280;53704;52.532;6.426;2023-03-04T04:17:21;102439.25;;;4.06;100.00
63006;BME280;53704;52.532;6.426;2023-03-04T04:19:47;102432.78;;;3.94;100.00
63006;BME280;53704;52.532;6.426;2023-03-04T04:22:15;102436.59;;;4.06;100.00
63006;BME280;53704;52.532;6.426;2023-03-04T04:24:41;102440.69;;;3.95;100.00
63006;BME280;53704;52.532;6.426;2023-03-04T04:27:07;102436.75;;;4.03;100.00
63006;BME280;53704;52.532;6.426;2023-03-04T04:29:32;102438.41;;;4.05;100.00
63006;BME280;53704;52.532;6.426;2023-03-04T04:31:58;102432.03;;;4.08;100.00
63006;BME280;53704;52.532;6.426;2023-03-04T04:34:24;102430.03;;;3.95;100.00
63006;BME280;53704;52.532;6.426;2023-03-04T04:36:49;102433.16;;;4.04;100.00
63006;BME280;53704;52.532;6.426;2023-03-04T04:39:15;102437.16;;;3.95;100.00
63006;BME280;53704;52.532;6.426;2023-03-04T04:41:42;102435.41;;;4.11;100.00
63006;BME280;53704;52.532;6.426;2023-03-04T04:44:08;102433.88;;;4.23;100.00
63006;BME280;53704;52.532;6.426;2023-03-04T04:46:34;102432.03;;;4.08;100.00
63006;BME280;53704;52.532;6.426;2023-03-04T04:49:00;102431.00;;;4.10;100.00
63006;BME280;53704;52.532;6.426;2023-03-04T04:51:26;102423.72;;;4.30;100.00
63006;BME280;53704;52.532;6.426;2023-03-04T04:53:52;102429.69;;;4.19;100.00
63006;BME280;53704;52.532;6.426;2023-03-04T04:56:20;102422.00;;;4.13;100.00
63006;BME280;53704;52.532;6.426;2023-03-04T04:58:47;102433.94;;;4.06;100.00
63006;BME280;53704;52.532;6.426;2023-03-04T05:01:13;102431.38;;;4.20;100.00
63006;BME280;53704;52.532;6.426;2023-03-04T05:03:40;102436.03;;;4.16;100.00
63006;BME280;53704;52.532;6.426;2023-03-04T05:06:07;102431.41;;;4.03;100.00
63006;BME280;53704;52.532;6.426;2023-03-04T05:08:34;102431.88;;;4.11;100.00
63006;BME280;53704;52.532;6.426;2023-03-04T05:11:00;102440.03;;;4.08;100.00
63006;BME280;53704;52.532;6.426;2023-03-04T05:13:26;102432.72;;;3.95;100.00
63006;BME280;53704;52.532;6.426;2023-03-04T05:15:54;102433.22;;;4.02;100.00
63006;BME280;53704;52.532;6.426;2023-03-04T05:18:21;102431.66;;;3.98;100.00
63006;BME280;53704;52.532;6.426;2023-03-04T05:20:52;102436.72;;;4.20;100.00
63006;BME280;53704;52.532;6.426;2023-03-04T05:23:17;102430.03;;;3.95;100.00
63006;BME280;53704;52.532;6.426;2023-03-04T05:25:43;102425.25;;;4.02;100.00
63006;BME280;53704;52.532;6.426;2023-03-04T05:28:09;102430.91;;;3.96;100.00
63006;BME280;53704;52.532;6.426;2023-03-04T05:30:37;102437.00;;;3.98;100.00
63006;BME280;53704;52.532;6.426;2023-03-04T05:33:03;102434.16;;;4.01;100.00
63006;BME280;53704;52.532;6.426;2023-03-04T05:35:31;102425.13;;;3.88;100.00
63006;BME280;53704;52.532;6.426;2023-03-04T05:37:56;102435.66;;;4.07;100.00
63006;BME280;53704;52.532;6.426;2023-03-04T05:40:22;102429.19;;;4.11;100.00
63006;BME280;53704;52.532;6.426;2023-03-04T05:42:50;102420.75;;;4.03;100.00
63006;BME280;53704;52.532;6.426;2023-03-04T05:45:15;102430.41;;;4.05;100.00
63006;BME280;53704;52.532;6.426;2023-03-04T05:47:40;102423.75;;;3.96;100.00
63006;BME280;53704;52.532;6.426;2023-03-04T05:50:06;102416.88;;;3.92;100.00
63006;BME280;53704;52.532;6.426;2023-03-04T05:52:32;102422.97;;;3.94;100.00
63006;BME280;53704;52.532;6.426;2023-03-04T05:54:57;102425.13;;;3.88;100.00
63006;BME280;53704;52.532;6.426;2023-03-04T05:57:23;102421.59;;;3.70;100.00
63006;BME280;53704;52.532;6.426;2023-03-04T05:59:48;102420.03;;;3.83;100.00
63006;BME280;53704;52.532;6.426;2023-03-04T06:02:13;102421.13;;;3.79;100.00
63006;BME280;53704;52.532;6.426;2023-03-04T06:04:39;102420.09;;;3.82;100.00
63006;BME280;53704;52.532;6.426;2023-03-04T06:07:04;102431.09;;;3.75;100.00
63006;BME280;53704;52.532;6.426;2023-03-04T06:09:30;102427.50;;;3.76;100.00
63006;BME280;53704;52.532;6.426;2023-03-04T06:11:55;102428.94;;;3.82;100.00
63006;BME280;53704;52.532;6.426;2023-03-04T06:14:21;102423.09;;;3.75;100.00
63006;BME280;53704;52.532;6.426;2023-03-04T06:16:46;102428.41;;;3.75;100.00
63006;BME280;53704;52.532;6.426;2023-03-04T06:19:12;102429.34;;;3.74;100.00
63006;BME280;53704;52.532;6.426;2023-03-04T06:21:37;102435.31;;;3.62;100.00
63006;BME280;53704;52.532;6.426;2023-03-04T06:24:03;102435.88;;;3.69;100.00
63006;BME280;53704;52.532;6.426;2023-03-04T06:26:28;102438.38;;;3.72;100.00
63006;BME280;53704;52.532;6.426;2023-03-04T06:28:54;102442.75;;;3.73;100.00
63006;BME280;53704;52.532;6.426;2023-03-04T06:31:21;102439.63;;;3.65;100.00
63006;BME280;53704;52.532;6.426;2023-03-04T06:33:47;102445.50;;;3.71;100.00
63006;BME280;53704;52.532;6.426;2023-03-04T06:36:12;102444.94;;;3.65;100.00
63006;BME280;53704;52.532;6.426;2023-03-04T06:38:38;102443.88;;;3.69;100.00
63006;BME280;53704;52.532;6.426;2023-03-04T06:41:08;102445.88;;;3.63;100.00
63006;BME280;53704;52.532;6.426;2023-03-04T06:43:34;102449.81;;;3.74;100.00
63006;BME280;53704;52.532;6.426;2023-03-04T06:45:59;102448.16;;;3.54;100.00
63006;BME280;53704;52.532;6.426;2023-03-04T06:48:25;102451.63;;;3.56;100.00
63006;BME280;53704;52.532;6.426;2023-03-04T06:50:50;102447.47;;;3.68;100.00
63006;BME280;53704;52.532;6.426;2023-03-04T06:53:15;102453.25;;;3.58;100.00
63006;BME280;53704;52.532;6.426;2023-03-04T06:55:41;102447.63;;;3.65;100.00
63006;BME280;53704;52.532;6.426;2023-03-04T06:58:06;102449.13;;;3.70;100.00
63006;BME280;53704;52.532;6.426;2023-03-04T07:00:32;102455.13;;;3.74;100.00
63006;BME280;53704;52.532;6.426;2023-03-04T07:02:57;102450.66;;;3.74;100.00
63006;BME280;53704;52.532;6.426;2023-03-04T07:05:23;102445.97;;;3.62;100.00
63006;BME280;53704;52.532;6.426;2023-03-04T07:07:48;102453.56;;;3.70;100.00
63006;BME280;53704;52.532;6.426;2023-03-04T07:10:16;102451.69;;;3.72;100.00
63006;BME280;53704;52.532;6.426;2023-03-04T07:12:41;102451.38;;;3.78;100.00
63006;BME280;53704;52.532;6.426;2023-03-04T07:15:07;102453.63;;;3.86;100.00
63006;BME280;53704;52.532;6.426;2023-03-04T07:17:33;102456.78;;;3.76;100.00
63006;BME280;53704;52.532;6.426;2023-03-04T07:19:59;102455.44;;;3.68;100.00
63006;BME280;53704;52.532;6.426;2023-03-04T07:22:24;102464.44;;;3.83;100.00
63006;BME280;53704;52.532;6.426;2023-03-04T07:24:50;102460.91;;;3.99;100.00
63006;BME280;53704;52.532;6.426;2023-03-04T07:27:15;102460.22;;;3.96;100.00
63006;BME280;53704;52.532;6.426;2023-03-04T07:29:41;102462.09;;;3.94;100.00
63006;BME280;53704;52.532;6.426;2023-03-04T07:32:07;102463.41;;;4.03;100.00
63006;BME280;53704;52.532;6.426;2023-03-04T07:34:33;102469.34;;;4.08;100.00
63006;BME280;53704;52.532;6.426;2023-03-04T07:36:59;102468.41;;;4.09;100.00
63006;BME280;53704;52.532;6.426;2023-03-04T07:39:24;102468.50;;;4.07;100.00
63006;BME280;53704;52.532;6.426;2023-03-04T07:41:50;102471.41;;;4.03;100.00
63006;BME280;53704;52.532;6.426;2023-03-04T07:44:15;102472.44;;;4.00;100.00
63006;BME280;53704;52.532;6.426;2023-03-04T07:46:40;102466.44;;;4.12;100.00
63006;BME280;53704;52.532;6.426;2023-03-04T07:49:06;102468.25;;;4.12;100.00
63006;BME280;53704;52.532;6.426;2023-03-04T07:51:32;102472.31;;;4.19;100.00
63006;BME280;53704;52.532;6.426;2023-03-04T07:54:00;102475.16;;;4.16;100.00
63006;BME280;53704;52.532;6.426;2023-03-04T07:56:30;102477.66;;;4.19;100.00
63006;BME280;53704;52.532;6.426;2023-03-04T07:58:56;102474.22;;;4.33;100.00
63006;BME280;53704;52.532;6.426;2023-03-04T08:01:25;102479.03;;;4.26;100.00
63006;BME280;53704;52.532;6.426;2023-03-04T08:03:51;102474.78;;;4.40;100.00
63006;BME280;53704;52.532;6.426;2023-03-04T08:06:17;102473.03;;;4.39;100.00
63006;BME280;53704;52.532;6.426;2023-03-04T08:08:44;102471.16;;;4.41;100.00
63006;BME280;53704;52.532;6.426;2023-03-04T08:11:19;102469.00;;;4.47;100.00
63006;BME280;53704;52.532;6.426;2023-03-04T08:13:45;102469.53;;;4.38;100.00
63006;BME280;53704;52.532;6.426;2023-03-04T08:16:12;102459.22;;;4.48;100.00
63006;BME280;53704;52.532;6.426;2023-03-04T08:18:41;102466.16;;;4.50;100.00
63006;BME280;53704;52.532;6.426;2023-03-04T08:21:08;102470.06;;;4.77;100.00
63006;BME280;53704;52.532;6.426;2023-03-04T08:23:35;102470.50;;;4.69;100.00
63006;BME280;53704;52.532;6.426;2023-03-04T08:26:05;102471.00;;;4.76;100.00
63006;BME280;53704;52.532;6.426;2023-03-04T08:28:31;102473.75;;;4.74;100.00
63006;BME280;53704;52.532;6.426;2023-03-04T08:30:57;102475.06;;;4.83;100.00
63006;BME280;53704;52.532;6.426;2023-03-04T08:33:22;102467.84;;;4.85;100.00
63006;BME280;53704;52.532;6.426;2023-03-04T08:35:48;102471.25;;;4.87;100.00
63006;BME280;53704;52.532;6.426;2023-03-04T08:38:13;102469.22;;;4.76;100.00
63006;BME280;53704;52.532;6.426;2023-03-04T08:40:38;102476.81;;;4.84;100.00
63006;BME280;53704;52.532;6.426;2023-03-04T08:43:04;102477.75;;;4.83;100.00
63006;BME280;53704;52.532;6.426;2023-03-04T08:45:29;102473.09;;;4.86;100.00
63006;BME280;53704;52.532;6.426;2023-03-04T08:47:55;102474.31;;;4.81;100.00
63006;BME280;53704;52.532;6.426;2023-03-04T08:50:20;102475.25;;;4.80;100.00
63006;BME280;53704;52.532;6.426;2023-03-04T08:52:46;102478.94;;;4.93;100.00
63006;BME280;53704;52.532;6.426;2023-03-04T08:55:11;102488.16;;;4.87;100.00
63006;BME280;53704;52.532;6.426;2023-03-04T08:57:37;102483.59;;;4.89;100.00
63006;BME280;53704;52.532;6.426;2023-03-04T09:00:03;102488.25;;;4.86;100.00
63006;BME280;53704;52.532;6.426;2023-03-04T09:02:28;102480.06;;;4.89;100.00
63006;BME280;53704;52.532;6.426;2023-03-04T09:04:54;102493.06;;;4.79;100.00
63006;BME280;53704;52.532;6.426;2023-03-04T09:07:19;102482.66;;;4.91;100.00
63006;BME280;53704;52.532;6.426;2023-03-04T09:09:44;102485.16;;;4.94;100.00
63006;BME280;53704;52.532;6.426;2023-03-04T09:12:10;102473.34;;;4.98;100.00
63006;BME280;53704;52.532;6.426;2023-03-04T09:14:36;102490.81;;;5.03;100.00
63006;BME280;53704;52.532;6.426;2023-03-04T09:17:04;102480.50;;;4.97;100.00
63006;BME280;53704;52.532;6.426;2023-03-04T09:19:30;102484.09;;;4.96;100.00
63006;BME280;53704;52.532;6.426;2023-03-04T09:21:55;102481.00;;;5.04;100.00
63006;BME280;53704;52.532;6.426;2023-03-04T09:24:23;102480.84;;;4.91;100.00
63006;BME280;53704;52.532;6.426;2023-03-04T09:26:50;102483.06;;;5.15;100.00
63006;BME280;53704;52.532;6.426;2023-03-04T09:29:16;102478.41;;;5.18;100.00
63006;BME280;53704;52.532;6.426;2023-03-04T09:31:41;102482.81;;;5.19;100.00
63006;BME280;53704;52.532;6.426;2023-03-04T09:34:07;102480.81;;;5.23;100.00
63006;BME280;53704;52.532;6.426;2023-03-04T09:36:32;102486.66;;;5.14;100.00
63006;BME280;53704;52.532;6.426;2023-03-04T09:38:59;102482.50;;;5.40;100.00
63006;BME280;53704;52.532;6.426;2023-03-04T09:43:56;102479.56;;;5.44;100.00
63006;BME280;53704;52.532;6.426;2023-03-04T09:46:40;102475.22;;;5.58;100.00
63006;BME280;53704;52.532;6.426;2023-03-04T09:49:09;102475.59;;;5.82;100.00
63006;BME280;53704;52.532;6.426;2023-03-04T09:51:48;102464.00;;;5.82;100.00
63006;BME280;53704;52.532;6.426;2023-03-04T09:58:18;102462.28;;;5.66;100.00
63006;BME280;53704;52.532;6.426;2023-03-04T10:02:50;102453.09;;;5.70;100.00
63006;BME280;53704;52.532;6.426;2023-03-04T10:05:23;102453.25;;;5.53;100.00
63006;BME280;53704;52.532;6.426;2023-03-04T10:08:13;102453.06;;;5.56;100.00
63006;BME280;53704;52.532;6.426;2023-03-04T10:10:44;102454.09;;;5.53;100.00
63006;BME280;53704;52.532;6.426;2023-03-04T10:13:15;102455.38;;;5.62;100.00
63006;BME280;53704;52.532;6.426;2023-03-04T10:15:45;102451.97;;;5.60;100.00
63006;BME280;53704;52.532;6.426;2023-03-04T10:18:17;102455.50;;;5.75;100.00
63006;BME280;53704;52.532;6.426;2023-03-04T10:21:01;102457.16;;;5.92;100.00
63006;BME280;53704;52.532;6.426;2023-03-04T10:23:30;102445.81;;;5.88;100.00
63006;BME280;53704;52.532;6.426;2023-03-04T10:25:58;102452.06;;;6.03;100.00
63006;BME280;53704;52.532;6.426;2023-03-04T10:28:30;102452.91;;;6.04;100.00
63006;BME280;53704;52.532;6.426;2023-03-04T10:33:32;102444.94;;;5.88;100.00
63006;BME280;53704;52.532;6.426;2023-03-04T10:38:35;102455.06;;;5.83;100.00
63006;BME280;53704;52.532;6.426;2023-03-04T10:41:19;102456.28;;;5.91;100.00
63006;BME280;53704;52.532;6.426;2023-03-04T10:43:50;102456.00;;;5.82;100.00
63006;BME280;53704;52.532;6.426;2023-03-04T10:46:24;102461.88;;;5.72;100.00
63006;BME280;53704;52.532;6.426;2023-03-04T10:48:52;102458.00;;;5.78;100.00
63006;BME280;53704;52.532;6.426;2023-03-04T10:51:19;102454.50;;;5.92;100.00
63006;BME280;53704;52.532;6.426;2023-03-04T10:53:46;102456.97;;;5.80;100.00
63006;BME280;53704;52.532;6.426;2023-03-04T11:01:49;102459.59;;;5.96;100.00
63006;BME280;53704;52.532;6.426;2023-03-04T11:04:19;102452.19;;;5.86;100.00
63006;BME280;53704;52.532;6.426;2023-03-04T11:06:47;102449.63;;;5.84;100.00
63006;BME280;53704;52.532;6.426;2023-03-04T11:09:39;102446.94;;;5.84;100.00
63006;BME280;53704;52.532;6.426;2023-03-04T11:12:10;102446.00;;;5.85;100.00
63006;BME280;53704;52.532;6.426;2023-03-04T11:14:45;102452.44;;;5.97;100.00
63006;BME280;53704;52.532;6.426;2023-03-04T11:17:25;102441.03;;;5.93;100.00
63006;BME280;53704;52.532;6.426;2023-03-04T11:19:57;102447.31;;;5.92;100.00
63006;BME280;53704;52.532;6.426;2023-03-04T11:22:26;102460.19;;;5.71;100.00
63006;BME280;53704;52.532;6.426;2023-03-04T11:25:00;102453.69;;;5.90;100.00
63006;BME280;53704;52.532;6.426;2023-03-04T11:27:37;102442.06;;;5.76;100.00
63006;BME280;53704;52.532;6.426;2023-03-04T11:30:49;102443.78;;;5.77;100.00
63006;BME280;53704;52.532;6.426;2023-03-04T11:33:21;102436.81;;;5.89;100.00
63006;BME280;53704;52.532;6.426;2023-03-04T11:36:22;102435.25;;;6.01;100.00
63006;BME280;53704;52.532;6.426;2023-03-04T11:38:50;102435.34;;;6.14;100.00
63006;BME280;53704;52.532;6.426;2023-03-04T11:41:38;102424.84;;;6.25;100.00
63006;BME280;53704;52.532;6.426;2023-03-04T11:44:07;102423.97;;;6.39;100.00
63006;BME280;53704;52.532;6.426;2023-03-04T11:56:55;102406.66;;;6.45;100.00
63006;BME280;53704;52.532;6.426;2023-03-04T12:02:20;102408.44;;;6.59;100.00
63006;BME280;53704;52.532;6.426;2023-03-04T12:13:36;102399.53;;;6.31;100.00
63006;BME280;53704;52.532;6.426;2023-03-04T12:35:40;102399.63;;;6.15;100.00
63006;BME280;53704;52.532;6.426;2023-03-04T12:41:05;102391.38;;;6.32;100.00
63006;BME280;53704;52.532;6.426;2023-03-04T12:43:41;102390.53;;;6.32;100.00
63006;BME280;53704;52.532;6.426;2023-03-04T12:49:13;102378.69;;;6.36;100.00
63006;BME280;53704;52.532;6.426;2023-03-04T12:54:31;102375.94;;;6.65;100.00
63006;BME280;53704;52.532;6.426;2023-03-04T12:57:09;102358.31;;;7.02;100.00
63006;BME280;53704;52.532;6.426;2023-03-04T12:59:44;102353.81;;;7.03;100.00
63006;BME280;53704;52.532;6.426;2023-03-04T13:10:29;102349.28;;;6.63;100.00
63006;BME280;53704;52.532;6.426;2023-03-04T13:12:57;102361.81;;;6.63;100.00
63006;BME280;53704;52.532;6.426;2023-03-04T13:17:49;102347.88;;;6.85;100.00
63006;BME280;53704;52.532;6.426;2023-03-04T13:22:56;102334.84;;;7.06;100.00
63006;BME280;53704;52.532;6.426;2023-03-04T13:25:35;102330.25;;;7.08;100.00
63006;BME280;53704;52.532;6.426;2023-03-04T13:28:12;102331.97;;;7.22;100.00
63006;BME280;53704;52.532;6.426;2023-03-04T13:30:41;102333.13;;;7.05;100.00
63006;BME280;53704;52.532;6.426;2023-03-04T13:43:37;102332.63;;;6.73;100.00
63006;BME280;53704;52.532;6.426;2023-03-04T13:54:31;102321.88;;;7.00;100.00
63006;BME280;53704;52.532;6.426;2023-03-04T13:59:42;102319.53;;;7.08;100.00
63006;BME280;53704;52.532;6.426;2023-03-04T14:05:01;102315.19;;;6.80;100.00
63006;BME280;53704;52.532;6.426;2023-03-04T14:07:31;102322.63;;;6.62;100.00
63006;BME280;53704;52.532;6.426;2023-03-04T14:10:01;102325.25;;;6.76;100.00
63006;BME280;53704;52.532;6.426;2023-03-04T14:12:31;102316.97;;;6.39;100.00
63006;BME280;53704;52.532;6.426;2023-03-04T14:15:00;102325.94;;;6.38;100.00
63006;BME280;53704;52.532;6.426;2023-03-04T14:17:33;102325.81;;;6.12;100.00
63006;BME280;53704;52.532;6.426;2023-03-04T14:20:02;102331.25;;;5.82;100.00
63006;BME280;53704;52.532;6.426;2023-03-04T14:22:37;102323.81;;;5.73;100.00
63006;BME280;53704;52.532;6.426;2023-03-04T14:27:46;102328.06;;;5.90;100.00
63006;BME280;53704;52.532;6.426;2023-03-04T14:30:23;102322.25;;;5.83;100.00
63006;BME280;53704;52.532;6.426;2023-03-04T14:32:51;102313.78;;;6.05;100.00
63006;BME280;53704;52.532;6.426;2023-03-04T14:35:23;102322.75;;;6.19;100.00
63006;BME280;53704;52.532;6.426;2023-03-04T14:40:23;102315.69;;;6.18;100.00
63006;BME280;53704;52.532;6.426;2023-03-04T14:42:55;102308.59;;;6.31;100.00
63006;BME280;53704;52.532;6.426;2023-03-04T14:45:21;102307.09;;;6.67;100.00
63006;BME280;53704;52.532;6.426;2023-03-04T14:47:48;102303.63;;;6.25;100.00
63006;BME280;53704;52.532;6.426;2023-03-04T14:50:18;102305.72;;;6.20;100.00
63006;BME280;53704;52.532;6.426;2023-03-04T14:52:49;102299.28;;;6.09;100.00
63006;BME280;53704;52.532;6.426;2023-03-04T14:55:26;102303.44;;;6.13;100.00